createdAt,value
2018-05-04T00:00:25.732Z,45.90
2018-05-04T00:05:28.208Z,45.90
2018-05-04T00:10:31.468Z,45.90
2018-05-04T00:15:33.968Z,45.80
2018-05-04T00:20:36.444Z,45.90
2018-05-04T00:25:38.931Z,46.10
2018-05-04T00:30:41.416Z,46.10
2018-05-04T00:35:43.912Z,46.00
2018-05-04T00:40:46.403Z,46.20
2018-05-04T00:45:48.891Z,46.10
2018-05-04T00:50:51.384Z,46.30
2018-05-04T00:55:53.876Z,46.20
2018-05-04T01:00:56.364Z,46.30
2018-05-04T01:05:58.860Z,46.20
2018-05-04T01:11:01.351Z,46.20
2018-05-04T01:16:03.856Z,46.10
2018-05-04T01:21:06.341Z,46.20
2018-05-04T01:26:08.856Z,46.40
2018-05-04T01:31:11.348Z,46.00
2018-05-04T01:36:13.819Z,46.20
2018-05-04T01:41:16.296Z,46.10
2018-05-04T01:46:18.854Z,46.20
2018-05-04T01:51:21.341Z,46.20
2018-05-04T01:56:23.828Z,46.20
2018-05-04T02:01:26.308Z,46.20
2018-05-04T02:06:28.796Z,46.40
2018-05-04T02:11:31.288Z,46.40
2018-05-04T02:16:33.772Z,46.40
2018-05-04T02:21:36.259Z,46.40
2018-05-04T02:26:38.747Z,46.40
2018-05-04T02:31:41.244Z,46.20
2018-05-04T02:36:43.744Z,46.50
2018-05-04T02:41:46.244Z,46.10
2018-05-04T02:46:48.752Z,46.40
2018-05-04T02:51:51.237Z,46.20
2018-05-04T02:56:53.724Z,46.40
2018-05-04T03:01:56.216Z,46.10
2018-05-04T03:06:58.700Z,46.30
2018-05-04T03:12:01.180Z,46.30
2018-05-04T03:17:03.661Z,46.40
2018-05-04T03:22:06.371Z,46.50
2018-05-04T03:27:08.868Z,46.30
2018-05-04T03:32:11.352Z,46.40
2018-05-04T03:37:14.675Z,46.40
2018-05-04T03:42:17.163Z,46.20
2018-05-04T03:47:19.651Z,46.30
2018-05-04T03:52:22.148Z,46.30
2018-05-04T03:57:36.464Z,46.60
2018-05-04T04:02:50.820Z,46.20
2018-05-04T04:07:53.299Z,46.40
2018-05-04T04:12:55.775Z,46.50
2018-05-04T04:17:58.279Z,46.40
2018-05-04T04:23:00.736Z,46.50
2018-05-04T04:28:03.279Z,46.20
2018-05-04T04:33:05.760Z,46.20
2018-05-04T04:38:08.256Z,46.20
2018-05-04T04:43:10.740Z,46.20
2018-05-04T04:48:13.236Z,46.40
2018-05-04T04:53:15.723Z,46.40
2018-05-04T04:58:18.227Z,46.30
2018-05-04T05:03:20.699Z,46.30
2018-05-04T05:08:23.180Z,46.40
2018-05-04T05:13:25.665Z,46.30
2018-05-04T05:18:28.923Z,46.40
2018-05-04T05:23:31.396Z,46.60
2018-05-04T05:28:33.889Z,46.40
2018-05-04T05:33:36.359Z,46.50
2018-05-04T05:38:38.851Z,46.70
2018-05-04T05:43:41.335Z,46.60
2018-05-04T05:48:44.596Z,46.60
2018-05-04T05:53:47.083Z,46.90
2018-05-04T05:58:49.572Z,46.60
2018-05-04T06:03:52.044Z,46.70
2018-05-04T06:08:54.525Z,47.10
2018-05-04T06:13:57.009Z,47.00
2018-05-04T06:19:00.267Z,47.00
2018-05-04T06:24:02.758Z,47.10
2018-05-04T06:29:05.253Z,46.90
2018-05-04T06:34:07.743Z,46.90
2018-05-04T06:39:10.220Z,47.00
2018-05-04T06:44:12.696Z,47.70
2018-05-04T06:49:15.168Z,47.30
2018-05-04T06:54:18.432Z,47.30
2018-05-04T06:59:21.012Z,47.30
2018-05-04T07:04:23.477Z,47.40
2018-05-04T07:09:26.735Z,47.50
2018-05-04T07:14:29.976Z,47.30
2018-05-04T07:19:32.455Z,47.40
2018-05-04T07:24:34.947Z,48.40
2018-05-04T07:29:37.435Z,47.50
2018-05-04T07:34:39.928Z,48.00
2018-05-04T07:39:42.416Z,47.90
2018-05-04T07:44:44.912Z,48.20
2018-05-04T07:49:47.411Z,48.60
2018-05-04T07:54:49.899Z,48.30
2018-05-04T07:59:53.164Z,48.60
2018-05-04T08:04:55.648Z,48.50
2018-05-04T08:09:58.887Z,49.00
2018-05-04T08:15:01.392Z,48.80
2018-05-04T08:20:04.721Z,49.00
2018-05-04T08:25:07.895Z,48.60
2018-05-04T08:30:10.379Z,48.50
2018-05-04T08:35:12.952Z,49.10
2018-05-04T08:40:15.355Z,49.40
2018-05-04T08:45:17.861Z,49.00
2018-05-04T08:50:20.356Z,48.70
2018-05-04T08:55:22.847Z,47.90
2018-05-04T09:00:25.339Z,48.50
2018-05-04T09:05:27.882Z,47.60
2018-05-04T09:10:30.332Z,49.10
2018-05-04T09:15:32.811Z,49.00
2018-05-04T09:20:35.304Z,47.80
2018-05-04T09:25:37.801Z,49.60
2018-05-04T09:30:40.292Z,48.20
2018-05-04T09:35:43.531Z,46.90
2018-05-04T09:40:46.036Z,47.00
2018-05-04T09:45:48.528Z,48.60
2018-05-04T09:50:51.019Z,47.70
2018-05-04T09:55:53.589Z,46.60
2018-05-04T10:00:56.000Z,47.40
2018-05-04T10:05:58.491Z,47.40
2018-05-04T10:11:00.979Z,46.80
2018-05-04T10:16:03.518Z,48.70
2018-05-04T10:21:05.962Z,46.20
2018-05-04T10:26:08.451Z,46.90
2018-05-04T10:31:10.939Z,47.40
2018-05-04T10:36:13.436Z,47.90
2018-05-04T10:41:15.932Z,47.80
2018-05-04T10:46:18.420Z,45.80
2018-05-04T10:51:20.916Z,46.00
2018-05-04T10:56:23.402Z,46.60
2018-05-04T11:01:25.902Z,44.80
2018-05-04T11:06:28.393Z,45.70
2018-05-04T11:11:30.884Z,46.40
2018-05-04T11:16:33.379Z,47.20
2018-05-04T11:21:35.847Z,47.40
2018-05-04T11:26:38.344Z,46.20
2018-05-04T11:31:40.836Z,43.90
2018-05-04T11:36:43.312Z,43.40
2018-05-04T11:41:46.547Z,46.00
2018-05-04T11:46:49.040Z,46.10
2018-05-04T11:51:51.511Z,43.80
2018-05-04T11:56:54.768Z,44.70
2018-05-04T12:01:57.260Z,44.60
2018-05-04T12:06:59.748Z,43.60
2018-05-04T12:12:02.242Z,45.00
2018-05-04T12:17:04.763Z,46.20
2018-05-04T12:22:07.254Z,43.90
2018-05-04T12:27:09.744Z,44.10
2018-05-04T12:32:12.247Z,44.70
2018-05-04T12:37:14.729Z,45.00
2018-05-04T12:42:17.236Z,44.70
2018-05-04T12:47:19.731Z,44.50
2018-05-04T12:52:22.234Z,43.60
2018-05-04T12:57:25.492Z,42.80
2018-05-04T13:02:27.984Z,42.60
2018-05-04T13:07:30.471Z,44.10
2018-05-04T13:12:32.960Z,45.70
2018-05-04T13:17:35.448Z,42.40
2018-05-04T13:22:37.931Z,42.40
2018-05-04T13:27:40.423Z,43.80
2018-05-04T13:32:42.908Z,45.20
2018-05-04T13:37:46.172Z,44.60
2018-05-04T13:42:48.688Z,44.70
2018-05-04T13:47:51.160Z,44.10
2018-05-04T13:52:53.676Z,44.70
2018-05-04T13:57:57.047Z,41.80
2018-05-04T14:02:59.543Z,41.70
2018-05-04T14:08:02.032Z,44.40
2018-05-04T14:13:04.528Z,42.10
2018-05-04T14:18:07.029Z,43.70
2018-05-04T14:23:10.504Z,41.90
2018-05-04T14:28:13.772Z,43.20
2018-05-04T14:33:16.276Z,42.90
2018-05-04T14:38:18.771Z,42.90
2018-05-04T14:43:21.253Z,43.00
2018-05-04T14:48:23.725Z,42.80
2018-05-04T14:53:26.204Z,43.50
2018-05-04T14:58:28.700Z,41.90
2018-05-04T15:03:31.177Z,42.40
2018-05-04T15:08:33.668Z,42.30
2018-05-04T15:13:36.160Z,42.10
2018-05-04T15:18:38.652Z,43.20
2018-05-04T15:23:41.148Z,43.10
2018-05-04T15:28:43.644Z,43.50
2018-05-04T15:33:46.132Z,41.40
2018-05-04T15:38:48.633Z,42.40
2018-05-04T15:43:51.219Z,43.30
2018-05-04T15:48:59.405Z,42.40
2018-05-04T15:54:02.643Z,40.90
2018-05-04T15:59:05.133Z,41.20
2018-05-04T16:04:07.609Z,41.20
2018-05-04T16:09:10.855Z,41.00
2018-05-04T16:14:13.328Z,41.20
2018-05-04T16:19:15.804Z,42.50
2018-05-04T16:24:19.060Z,41.80
2018-05-04T16:29:22.327Z,41.70
2018-05-04T16:34:25.584Z,42.20
2018-05-04T16:39:28.396Z,42.30
2018-05-04T16:44:30.860Z,43.10
2018-05-04T16:49:38.142Z,42.00
2018-05-04T16:54:41.812Z,43.50
2018-05-04T16:59:44.308Z,43.60
2018-05-04T17:04:46.799Z,42.40
2018-05-04T17:09:49.295Z,42.70
2018-05-04T17:14:51.780Z,42.30
2018-05-04T17:19:54.267Z,42.40
2018-05-04T17:24:56.747Z,42.80
2018-05-04T17:29:59.236Z,43.20
2018-05-04T17:35:01.727Z,42.60
2018-05-04T17:40:04.219Z,42.80
2018-05-04T17:45:06.711Z,42.10
2018-05-04T17:50:09.203Z,42.90
2018-05-04T17:55:11.747Z,42.80
2018-05-04T18:00:14.217Z,42.70
2018-05-04T18:05:16.688Z,42.80
2018-05-04T18:10:19.229Z,42.60
2018-05-04T18:15:21.771Z,43.00
2018-05-04T18:20:24.271Z,42.60
2018-05-04T18:25:26.769Z,42.30
2018-05-04T18:30:29.255Z,41.80
2018-05-04T18:35:31.847Z,42.00
2018-05-04T18:40:34.323Z,42.30
2018-05-04T18:45:36.824Z,42.50
2018-05-04T18:50:39.320Z,42.50
2018-05-04T18:55:41.825Z,42.30
2018-05-04T19:00:44.311Z,42.20
2018-05-04T19:05:46.796Z,42.90
2018-05-04T19:10:49.271Z,41.80
2018-05-04T19:15:51.759Z,42.50
2018-05-04T19:20:54.243Z,43.20
2018-05-04T19:25:57.505Z,42.90
2018-05-04T19:31:00.760Z,43.30
2018-05-04T19:36:04.025Z,43.30
2018-05-04T19:41:06.515Z,43.50
2018-05-04T19:46:09.008Z,43.90
2018-05-04T19:51:12.252Z,44.40
2018-05-04T19:56:14.723Z,44.30
2018-05-04T20:01:17.216Z,44.60
2018-05-04T20:06:20.544Z,44.40
2018-05-04T20:11:23.042Z,44.60
2018-05-04T20:16:25.536Z,44.60
2018-05-04T20:21:28.017Z,44.70
2018-05-04T20:26:30.491Z,44.80
2018-05-04T20:31:33.434Z,44.90
2018-05-04T20:36:35.924Z,44.90
2018-05-04T20:41:39.188Z,44.90
2018-05-04T20:46:41.689Z,45.00
2018-05-04T20:51:44.174Z,45.10
2018-05-04T20:56:46.664Z,45.00
2018-05-04T21:01:49.150Z,45.10
2018-05-04T21:06:51.643Z,45.10
2018-05-04T21:11:54.136Z,45.20
2018-05-04T21:16:56.635Z,45.00
2018-05-04T21:21:59.123Z,45.50
2018-05-04T21:27:01.706Z,45.50
2018-05-04T21:32:04.113Z,45.40
2018-05-04T21:37:06.603Z,45.20
2018-05-04T21:42:09.099Z,45.20
2018-05-04T21:47:11.597Z,45.50
2018-05-04T21:52:14.084Z,45.70
2018-05-04T21:57:16.581Z,45.60
2018-05-04T22:02:19.068Z,45.70
2018-05-04T22:07:21.563Z,45.60
2018-05-04T22:12:24.043Z,45.60
2018-05-04T22:17:26.538Z,45.80
2018-05-04T22:22:29.023Z,45.60
2018-05-04T22:27:31.516Z,45.80
2018-05-04T22:32:34.015Z,46.00
2018-05-04T22:37:36.488Z,45.80
2018-05-04T22:42:39.823Z,45.80
2018-05-04T22:47:42.311Z,46.00
2018-05-04T22:52:44.791Z,46.00
2018-05-04T22:57:48.056Z,46.00
2018-05-04T23:02:50.543Z,45.90
2018-05-04T23:07:53.031Z,46.10
2018-05-04T23:12:55.524Z,46.40
2018-05-04T23:17:57.996Z,46.20
2018-05-04T23:23:00.475Z,46.20
2018-05-04T23:28:02.963Z,46.40
2018-05-04T23:33:06.211Z,46.40
2018-05-04T23:38:08.704Z,46.40
2018-05-04T23:43:11.197Z,46.40
2018-05-04T23:48:13.688Z,46.40
2018-05-04T23:53:16.180Z,46.40
2018-05-04T23:58:18.672Z,46.60
